sensor_id;sensor_type;location;lat;lon;timestamp;P1;durP1;ratioP1;P2;durP2;ratioP2
51374;SDS011;37465;52.738;4.752;2022-12-18T00:01:15;112.82;;;36.75;;
51374;SDS011;37465;52.738;4.752;2022-12-18T00:06:12;100.22;;;33.50;;
51374;SDS011;37465;52.738;4.752;2022-12-18T00:08:39;122.20;;;36.65;;
51374;SDS011;37465;52.738;4.752;2022-12-18T00:11:10;123.07;;;38.33;;
51374;SDS011;37465;52.738;4.752;2022-12-18T00:13:39;116.70;;;36.05;;
51374;SDS011;37465;52.738;4.752;2022-12-18T00:16:07;111.20;;;36.88;;
51374;SDS011;37465;52.738;4.752;2022-12-18T00:18:36;114.57;;;37.25;;
51374;SDS011;37465;52.738;4.752;2022-12-18T00:21:06;116.43;;;38.13;;
51374;SDS011;37465;52.738;4.752;2022-12-18T00:26:03;124.15;;;36.95;;
51374;SDS011;37465;52.738;4.752;2022-12-18T00:28:33;140.57;;;38.97;;
51374;SDS011;37465;52.738;4.752;2022-12-18T00:31:01;129.13;;;38.83;;
51374;SDS011;37465;52.738;4.752;2022-12-18T00:33:29;122.80;;;35.80;;
51374;SDS011;37465;52.738;4.752;2022-12-18T00:36:00;128.98;;;39.70;;
51374;SDS011;37465;52.738;4.752;2022-12-18T00:38:27;133.38;;;41.15;;
51374;SDS011;37465;52.738;4.752;2022-12-18T00:40:55;124.95;;;39.28;;
51374;SDS011;37465;52.738;4.752;2022-12-18T00:43:23;118.75;;;37.55;;
51374;SDS011;37465;52.738;4.752;2022-12-18T00:45:51;108.80;;;37.10;;
51374;SDS011;37465;52.738;4.752;2022-12-18T00:48:19;120.93;;;36.80;;
51374;SDS011;37465;52.738;4.752;2022-12-18T00:50:47;121.88;;;39.38;;
51374;SDS011;37465;52.738;4.752;2022-12-18T00:53:15;111.25;;;36.47;;
51374;SDS011;37465;52.738;4.752;2022-12-18T00:55:43;131.23;;;39.92;;
51374;SDS011;37465;52.738;4.752;2022-12-18T00:58:11;128.73;;;39.03;;
51374;SDS011;37465;52.738;4.752;2022-12-18T01:00:40;128.38;;;39.50;;
51374;SDS011;37465;52.738;4.752;2022-12-18T01:03:09;155.80;;;43.90;;
51374;SDS011;37465;52.738;4.752;2022-12-18T01:05:39;143.30;;;42.17;;
51374;SDS011;37465;52.738;4.752;2022-12-18T01:08:06;155.98;;;41.42;;
51374;SDS011;37465;52.738;4.752;2022-12-18T01:10:34;152.88;;;41.30;;
51374;SDS011;37465;52.738;4.752;2022-12-18T01:13:02;140.02;;;40.53;;
51374;SDS011;37465;52.738;4.752;2022-12-18T01:15:29;128.30;;;38.42;;
51374;SDS011;37465;52.738;4.752;2022-12-18T01:17:57;127.57;;;40.22;;
51374;SDS011;37465;52.738;4.752;2022-12-18T01:20:26;131.70;;;41.53;;
51374;SDS011;37465;52.738;4.752;2022-12-18T01:22:53;98.78;;;34.45;;
51374;SDS011;37465;52.738;4.752;2022-12-18T01:25:21;129.60;;;38.58;;
51374;SDS011;37465;52.738;4.752;2022-12-18T01:27:49;131.77;;;38.67;;
51374;SDS011;37465;52.738;4.752;2022-12-18T01:30:16;125.15;;;38.33;;
51374;SDS011;37465;52.738;4.752;2022-12-18T01:32:44;121.45;;;36.88;;
51374;SDS011;37465;52.738;4.752;2022-12-18T01:35:11;122.18;;;39.40;;
51374;SDS011;37465;52.738;4.752;2022-12-18T01:37:40;119.47;;;35.15;;
51374;SDS011;37465;52.738;4.752;2022-12-18T01:40:08;121.18;;;36.85;;
51374;SDS011;37465;52.738;4.752;2022-12-18T01:42:37;111.67;;;34.57;;
51374;SDS011;37465;52.738;4.752;2022-12-18T01:45:06;136.82;;;39.33;;
51374;SDS011;37465;52.738;4.752;2022-12-18T01:47:36;128.13;;;37.70;;
51374;SDS011;37465;52.738;4.752;2022-12-18T01:50:08;122.05;;;37.30;;
51374;SDS011;37465;52.738;4.752;2022-12-18T01:52:38;127.35;;;37.65;;
51374;SDS011;37465;52.738;4.752;2022-12-18T01:55:10;135.05;;;39.03;;
51374;SDS011;37465;52.738;4.752;2022-12-18T01:57:39;132.35;;;37.80;;
51374;SDS011;37465;52.738;4.752;2022-12-18T02:00:08;124.57;;;36.95;;
51374;SDS011;37465;52.738;4.752;2022-12-18T02:02:38;126.63;;;37.38;;
51374;SDS011;37465;52.738;4.752;2022-12-18T02:05:07;106.72;;;34.33;;
51374;SDS011;37465;52.738;4.752;2022-12-18T02:07:37;111.55;;;35.08;;
51374;SDS011;37465;52.738;4.752;2022-12-18T02:10:13;116.03;;;34.40;;
51374;SDS011;37465;52.738;4.752;2022-12-18T02:12:45;115.95;;;34.85;;
51374;SDS011;37465;52.738;4.752;2022-12-18T02:15:18;103.82;;;31.58;;
51374;SDS011;37465;52.738;4.752;2022-12-18T02:17:50;120.43;;;35.88;;
51374;SDS011;37465;52.738;4.752;2022-12-18T02:20:21;102.75;;;32.10;;
51374;SDS011;37465;52.738;4.752;2022-12-18T02:22:58;107.38;;;32.40;;
51374;SDS011;37465;52.738;4.752;2022-12-18T02:25:38;107.60;;;32.35;;
51374;SDS011;37465;52.738;4.752;2022-12-18T02:28:13;108.18;;;31.65;;
51374;SDS011;37465;52.738;4.752;2022-12-18T02:30:41;118.22;;;35.30;;
51374;SDS011;37465;52.738;4.752;2022-12-18T02:33:09;109.50;;;34.85;;
51374;SDS011;37465;52.738;4.752;2022-12-18T02:35:38;120.00;;;33.20;;
51374;SDS011;37465;52.738;4.752;2022-12-18T02:38:07;115.10;;;33.45;;
51374;SDS011;37465;52.738;4.752;2022-12-18T02:40:36;139.68;;;38.28;;
51374;SDS011;37465;52.738;4.752;2022-12-18T02:43:07;119.80;;;34.88;;
51374;SDS011;37465;52.738;4.752;2022-12-18T02:45:36;124.43;;;36.03;;
51374;SDS011;37465;52.738;4.752;2022-12-18T02:48:12;111.32;;;34.90;;
51374;SDS011;37465;52.738;4.752;2022-12-18T02:50:41;119.10;;;33.95;;
51374;SDS011;37465;52.738;4.752;2022-12-18T02:53:14;98.75;;;32.00;;
51374;SDS011;37465;52.738;4.752;2022-12-18T02:55:49;109.95;;;32.40;;
51374;SDS011;37465;52.738;4.752;2022-12-18T02:58:26;105.88;;;31.55;;
51374;SDS011;37465;52.738;4.752;2022-12-18T03:01:00;107.82;;;33.05;;
51374;SDS011;37465;52.738;4.752;2022-12-18T03:03:31;103.85;;;29.80;;
51374;SDS011;37465;52.738;4.752;2022-12-18T03:06:04;93.18;;;28.33;;
51374;SDS011;37465;52.738;4.752;2022-12-18T03:08:34;97.53;;;31.77;;
51374;SDS011;37465;52.738;4.752;2022-12-18T03:11:06;102.25;;;31.35;;
51374;SDS011;37465;52.738;4.752;2022-12-18T03:13:35;115.60;;;35.47;;
51374;SDS011;37465;52.738;4.752;2022-12-18T03:16:09;103.35;;;33.78;;
51374;SDS011;37465;52.738;4.752;2022-12-18T03:18:38;107.60;;;33.83;;
51374;SDS011;37465;52.738;4.752;2022-12-18T03:21:10;93.07;;;30.17;;
51374;SDS011;37465;52.738;4.752;2022-12-18T03:23:39;107.88;;;31.60;;
51374;SDS011;37465;52.738;4.752;2022-12-18T03:26:09;111.63;;;32.45;;
51374;SDS011;37465;52.738;4.752;2022-12-18T03:31:09;111.28;;;33.20;;
51374;SDS011;37465;52.738;4.752;2022-12-18T03:33:37;107.70;;;33.45;;
51374;SDS011;37465;52.738;4.752;2022-12-18T03:36:07;108.53;;;32.28;;
51374;SDS011;37465;52.738;4.752;2022-12-18T03:38:35;98.13;;;32.25;;
51374;SDS011;37465;52.738;4.752;2022-12-18T03:41:04;104.72;;;31.27;;
51374;SDS011;37465;52.738;4.752;2022-12-18T03:43:38;105.15;;;32.20;;
51374;SDS011;37465;52.738;4.752;2022-12-18T03:46:14;109.13;;;34.30;;
51374;SDS011;37465;52.738;4.752;2022-12-18T03:48:46;106.50;;;33.67;;
51374;SDS011;37465;52.738;4.752;2022-12-18T03:51:19;105.88;;;32.80;;
51374;SDS011;37465;52.738;4.752;2022-12-18T03:53:50;93.78;;;31.75;;
51374;SDS011;37465;52.738;4.752;2022-12-18T03:56:21;92.22;;;30.40;;
51374;SDS011;37465;52.738;4.752;2022-12-18T03:58:50;100.47;;;31.42;;
51374;SDS011;37465;52.738;4.752;2022-12-18T04:01:22;89.25;;;29.73;;
51374;SDS011;37465;52.738;4.752;2022-12-18T04:03:53;86.18;;;29.05;;
51374;SDS011;37465;52.738;4.752;2022-12-18T04:06:22;88.43;;;30.30;;
51374;SDS011;37465;52.738;4.752;2022-12-18T04:08:49;90.35;;;29.83;;
51374;SDS011;37465;52.738;4.752;2022-12-18T04:11:17;79.90;;;28.00;;
51374;SDS011;37465;52.738;4.752;2022-12-18T04:13:45;91.63;;;29.73;;
51374;SDS011;37465;52.738;4.752;2022-12-18T04:16:13;91.38;;;31.83;;
51374;SDS011;37465;52.738;4.752;2022-12-18T04:18:42;97.60;;;31.98;;
51374;SDS011;37465;52.738;4.752;2022-12-18T04:21:09;95.85;;;30.20;;
51374;SDS011;37465;52.738;4.752;2022-12-18T04:23:37;103.05;;;30.13;;
51374;SDS011;37465;52.738;4.752;2022-12-18T04:26:05;104.15;;;32.28;;
51374;SDS011;37465;52.738;4.752;2022-12-18T04:28:33;100.38;;;30.50;;
51374;SDS011;37465;52.738;4.752;2022-12-18T04:31:01;93.07;;;29.80;;
51374;SDS011;37465;52.738;4.752;2022-12-18T04:33:28;89.55;;;28.95;;
51374;SDS011;37465;52.738;4.752;2022-12-18T04:35:57;94.85;;;31.05;;
51374;SDS011;37465;52.738;4.752;2022-12-18T04:38:25;106.70;;;32.33;;
51374;SDS011;37465;52.738;4.752;2022-12-18T04:40:52;84.00;;;29.90;;
51374;SDS011;37465;52.738;4.752;2022-12-18T04:43:20;98.47;;;30.92;;
51374;SDS011;37465;52.738;4.752;2022-12-18T04:45:48;89.18;;;29.77;;
51374;SDS011;37465;52.738;4.752;2022-12-18T04:48:15;84.63;;;30.13;;
51374;SDS011;37465;52.738;4.752;2022-12-18T04:50:43;87.30;;;29.17;;
51374;SDS011;37465;52.738;4.752;2022-12-18T04:53:12;115.65;;;32.55;;
51374;SDS011;37465;52.738;4.752;2022-12-18T04:55:39;62.75;;;20.58;;
51374;SDS011;37465;52.738;4.752;2022-12-18T04:58:07;75.50;;;26.60;;
51374;SDS011;37465;52.738;4.752;2022-12-18T05:00:35;79.63;;;26.80;;
51374;SDS011;37465;52.738;4.752;2022-12-18T05:03:02;90.30;;;28.90;;
51374;SDS011;37465;52.738;4.752;2022-12-18T05:05:30;79.65;;;27.45;;
51374;SDS011;37465;52.738;4.752;2022-12-18T05:07:59;67.90;;;26.50;;
51374;SDS011;37465;52.738;4.752;2022-12-18T05:10:28;78.40;;;26.38;;
51374;SDS011;37465;52.738;4.752;2022-12-18T05:13:03;92.30;;;26.83;;
51374;SDS011;37465;52.738;4.752;2022-12-18T05:15:31;95.47;;;27.85;;
51374;SDS011;37465;52.738;4.752;2022-12-18T05:17:59;91.90;;;31.13;;
51374;SDS011;37465;52.738;4.752;2022-12-18T05:20:27;76.35;;;27.48;;
51374;SDS011;37465;52.738;4.752;2022-12-18T05:22:55;72.80;;;25.77;;
51374;SDS011;37465;52.738;4.752;2022-12-18T05:25:23;83.22;;;28.27;;
51374;SDS011;37465;52.738;4.752;2022-12-18T05:27:52;82.97;;;27.88;;
51374;SDS011;37465;52.738;4.752;2022-12-18T05:30:20;68.95;;;25.90;;
51374;SDS011;37465;52.738;4.752;2022-12-18T05:32:48;64.53;;;25.42;;
51374;SDS011;37465;52.738;4.752;2022-12-18T05:35:16;66.80;;;25.77;;
51374;SDS011;37465;52.738;4.752;2022-12-18T05:37:43;76.05;;;28.38;;
51374;SDS011;37465;52.738;4.752;2022-12-18T05:40:11;63.13;;;24.05;;
51374;SDS011;37465;52.738;4.752;2022-12-18T05:42:39;64.40;;;23.77;;
51374;SDS011;37465;52.738;4.752;2022-12-18T05:45:08;72.88;;;28.38;;
51374;SDS011;37465;52.738;4.752;2022-12-18T05:47:36;63.65;;;25.75;;
51374;SDS011;37465;52.738;4.752;2022-12-18T05:50:04;60.72;;;25.27;;
51374;SDS011;37465;52.738;4.752;2022-12-18T05:52:33;59.97;;;24.33;;
51374;SDS011;37465;52.738;4.752;2022-12-18T05:55:01;57.53;;;22.50;;
51374;SDS011;37465;52.738;4.752;2022-12-18T05:57:28;60.67;;;24.27;;
51374;SDS011;37465;52.738;4.752;2022-12-18T05:59:56;65.72;;;25.70;;
51374;SDS011;37465;52.738;4.752;2022-12-18T06:02:25;58.63;;;23.98;;
51374;SDS011;37465;52.738;4.752;2022-12-18T06:04:53;61.80;;;24.58;;
51374;SDS011;37465;52.738;4.752;2022-12-18T06:07:20;60.78;;;23.88;;
51374;SDS011;37465;52.738;4.752;2022-12-18T06:09:48;65.60;;;26.25;;
51374;SDS011;37465;52.738;4.752;2022-12-18T06:12:16;71.72;;;28.40;;
51374;SDS011;37465;52.738;4.752;2022-12-18T06:14:43;69.72;;;25.65;;
51374;SDS011;37465;52.738;4.752;2022-12-18T06:17:11;67.90;;;25.67;;
51374;SDS011;37465;52.738;4.752;2022-12-18T06:19:40;62.53;;;25.23;;
51374;SDS011;37465;52.738;4.752;2022-12-18T06:22:07;51.65;;;19.45;;
51374;SDS011;37465;52.738;4.752;2022-12-18T06:24:35;63.42;;;24.83;;
51374;SDS011;37465;52.738;4.752;2022-12-18T06:27:03;59.80;;;25.00;;
51374;SDS011;37465;52.738;4.752;2022-12-18T06:29:31;58.83;;;23.35;;
51374;SDS011;37465;52.738;4.752;2022-12-18T06:31:58;59.35;;;23.92;;
51374;SDS011;37465;52.738;4.752;2022-12-18T06:34:26;63.30;;;23.52;;
51374;SDS011;37465;52.738;4.752;2022-12-18T06:36:55;59.10;;;24.83;;
51374;SDS011;37465;52.738;4.752;2022-12-18T06:39:22;59.03;;;25.10;;
51374;SDS011;37465;52.738;4.752;2022-12-18T06:41:50;63.58;;;25.77;;
51374;SDS011;37465;52.738;4.752;2022-12-18T06:44:17;53.88;;;22.83;;
51374;SDS011;37465;52.738;4.752;2022-12-18T06:46:45;62.70;;;24.55;;
51374;SDS011;37465;52.738;4.752;2022-12-18T06:49:13;58.53;;;24.35;;
51374;SDS011;37465;52.738;4.752;2022-12-18T06:51:42;60.53;;;25.75;;
51374;SDS011;37465;52.738;4.752;2022-12-18T06:54:11;61.60;;;25.85;;
51374;SDS011;37465;52.738;4.752;2022-12-18T06:56:38;60.05;;;23.85;;
51374;SDS011;37465;52.738;4.752;2022-12-18T06:59:06;53.85;;;24.50;;
51374;SDS011;37465;52.738;4.752;2022-12-18T07:01:34;66.28;;;25.42;;
51374;SDS011;37465;52.738;4.752;2022-12-18T07:04:02;62.15;;;27.88;;
51374;SDS011;37465;52.738;4.752;2022-12-18T07:06:29;61.00;;;27.27;;
51374;SDS011;37465;52.738;4.752;2022-12-18T07:08:57;65.38;;;26.95;;
51374;SDS011;37465;52.738;4.752;2022-12-18T07:11:26;62.28;;;26.20;;
51374;SDS011;37465;52.738;4.752;2022-12-18T07:13:53;63.15;;;25.33;;
51374;SDS011;37465;52.738;4.752;2022-12-18T07:16:21;53.70;;;23.33;;
51374;SDS011;37465;52.738;4.752;2022-12-18T07:18:51;61.88;;;24.60;;
51374;SDS011;37465;52.738;4.752;2022-12-18T07:21:19;56.03;;;24.23;;
51374;SDS011;37465;52.738;4.752;2022-12-18T07:23:47;53.13;;;23.38;;
51374;SDS011;37465;52.738;4.752;2022-12-18T07:26:15;46.75;;;23.38;;
51374;SDS011;37465;52.738;4.752;2022-12-18T07:28:45;49.65;;;23.92;;
51374;SDS011;37465;52.738;4.752;2022-12-18T07:31:14;56.58;;;23.50;;
51374;SDS011;37465;52.738;4.752;2022-12-18T07:33:43;55.30;;;23.45;;
51374;SDS011;37465;52.738;4.752;2022-12-18T07:36:11;59.95;;;25.58;;
51374;SDS011;37465;52.738;4.752;2022-12-18T07:38:38;57.22;;;25.33;;
51374;SDS011;37465;52.738;4.752;2022-12-18T07:41:08;62.45;;;25.33;;
51374;SDS011;37465;52.738;4.752;2022-12-18T07:43:36;57.60;;;26.45;;
51374;SDS011;37465;52.738;4.752;2022-12-18T07:46:06;56.53;;;25.25;;
51374;SDS011;37465;52.738;4.752;2022-12-18T07:48:35;55.83;;;26.85;;
51374;SDS011;37465;52.738;4.752;2022-12-18T07:51:03;58.17;;;25.38;;
51374;SDS011;37465;52.738;4.752;2022-12-18T07:56:00;59.72;;;24.15;;
51374;SDS011;37465;52.738;4.752;2022-12-18T07:58:49;57.28;;;23.63;;
51374;SDS011;37465;52.738;4.752;2022-12-18T08:01:18;57.75;;;24.50;;
51374;SDS011;37465;52.738;4.752;2022-12-18T08:06:13;47.38;;;20.30;;
51374;SDS011;37465;52.738;4.752;2022-12-18T08:08:41;45.45;;;20.63;;
51374;SDS011;37465;52.738;4.752;2022-12-18T08:11:09;43.72;;;19.90;;
51374;SDS011;37465;52.738;4.752;2022-12-18T08:13:36;45.88;;;19.90;;
51374;SDS011;37465;52.738;4.752;2022-12-18T08:16:05;36.72;;;18.88;;
51374;SDS011;37465;52.738;4.752;2022-12-18T08:18:36;37.63;;;18.27;;
51374;SDS011;37465;52.738;4.752;2022-12-18T08:21:08;45.70;;;20.05;;
51374;SDS011;37465;52.738;4.752;2022-12-18T08:23:36;38.03;;;17.92;;
51374;SDS011;37465;52.738;4.752;2022-12-18T08:26:08;35.72;;;17.10;;
51374;SDS011;37465;52.738;4.752;2022-12-18T08:28:36;33.40;;;16.20;;
51374;SDS011;37465;52.738;4.752;2022-12-18T08:31:04;34.63;;;17.85;;
51374;SDS011;37465;52.738;4.752;2022-12-18T08:33:32;36.25;;;18.25;;
51374;SDS011;37465;52.738;4.752;2022-12-18T08:36:01;36.95;;;17.60;;
51374;SDS011;37465;52.738;4.752;2022-12-18T08:38:30;35.30;;;17.42;;
51374;SDS011;37465;52.738;4.752;2022-12-18T08:40:58;37.75;;;18.83;;
51374;SDS011;37465;52.738;4.752;2022-12-18T08:43:27;40.92;;;20.23;;
51374;SDS011;37465;52.738;4.752;2022-12-18T08:46:08;35.15;;;18.02;;
51374;SDS011;37465;52.738;4.752;2022-12-18T08:48:36;43.00;;;19.63;;
51374;SDS011;37465;52.738;4.752;2022-12-18T08:51:05;39.55;;;19.55;;
51374;SDS011;37465;52.738;4.752;2022-12-18T08:53:33;42.53;;;20.75;;
51374;SDS011;37465;52.738;4.752;2022-12-18T08:56:01;41.85;;;20.00;;
51374;SDS011;37465;52.738;4.752;2022-12-18T08:58:29;42.38;;;20.10;;
51374;SDS011;37465;52.738;4.752;2022-12-18T09:00:59;36.22;;;19.15;;
51374;SDS011;37465;52.738;4.752;2022-12-18T09:03:28;35.28;;;19.15;;
51374;SDS011;37465;52.738;4.752;2022-12-18T09:05:55;38.08;;;18.92;;
51374;SDS011;37465;52.738;4.752;2022-12-18T09:08:24;38.33;;;19.83;;
51374;SDS011;37465;52.738;4.752;2022-12-18T09:10:52;40.15;;;20.10;;
51374;SDS011;37465;52.738;4.752;2022-12-18T09:13:20;36.17;;;19.73;;
51374;SDS011;37465;52.738;4.752;2022-12-18T09:15:48;40.00;;;21.42;;
51374;SDS011;37465;52.738;4.752;2022-12-18T09:18:17;39.53;;;21.75;;
51374;SDS011;37465;52.738;4.752;2022-12-18T09:23:14;40.67;;;20.92;;
51374;SDS011;37465;52.738;4.752;2022-12-18T09:25:43;42.28;;;22.55;;
51374;SDS011;37465;52.738;4.752;2022-12-18T09:28:11;36.42;;;20.85;;
51374;SDS011;37465;52.738;4.752;2022-12-18T09:30:43;38.42;;;21.30;;
51374;SDS011;37465;52.738;4.752;2022-12-18T09:33:12;38.95;;;21.52;;
51374;SDS011;37465;52.738;4.752;2022-12-18T09:35:41;34.58;;;21.85;;
51374;SDS011;37465;52.738;4.752;2022-12-18T09:38:11;38.67;;;21.67;;
51374;SDS011;37465;52.738;4.752;2022-12-18T09:40:41;39.08;;;22.77;;
51374;SDS011;37465;52.738;4.752;2022-12-18T09:43:16;38.38;;;21.58;;
51374;SDS011;37465;52.738;4.752;2022-12-18T09:45:47;37.88;;;22.90;;
51374;SDS011;37465;52.738;4.752;2022-12-18T09:48:19;40.90;;;22.88;;
51374;SDS011;37465;52.738;4.752;2022-12-18T09:50:49;37.75;;;22.45;;
51374;SDS011;37465;52.738;4.752;2022-12-18T09:53:19;38.60;;;21.57;;
51374;SDS011;37465;52.738;4.752;2022-12-18T09:55:50;37.40;;;21.58;;
51374;SDS011;37465;52.738;4.752;2022-12-18T09:58:20;37.45;;;22.08;;
51374;SDS011;37465;52.738;4.752;2022-12-18T10:00:52;36.45;;;21.17;;
51374;SDS011;37465;52.738;4.752;2022-12-18T10:03:20;38.38;;;22.27;;
51374;SDS011;37465;52.738;4.752;2022-12-18T10:05:51;34.65;;;21.08;;
51374;SDS011;37465;52.738;4.752;2022-12-18T10:08:27;34.53;;;20.85;;
51374;SDS011;37465;52.738;4.752;2022-12-18T10:11:03;33.65;;;20.98;;
51374;SDS011;37465;52.738;4.752;2022-12-18T10:13:45;33.15;;;19.77;;
51374;SDS011;37465;52.738;4.752;2022-12-18T10:16:16;37.55;;;20.80;;
51374;SDS011;37465;52.738;4.752;2022-12-18T10:18:55;34.67;;;20.90;;
51374;SDS011;37465;52.738;4.752;2022-12-18T10:21:31;36.90;;;21.00;;
51374;SDS011;37465;52.738;4.752;2022-12-18T10:24:01;33.55;;;20.23;;
51374;SDS011;37465;52.738;4.752;2022-12-18T10:26:33;36.15;;;19.80;;
51374;SDS011;37465;52.738;4.752;2022-12-18T10:29:04;31.27;;;18.98;;
51374;SDS011;37465;52.738;4.752;2022-12-18T10:31:36;35.28;;;20.27;;
51374;SDS011;37465;52.738;4.752;2022-12-18T10:34:04;32.97;;;19.48;;
51374;SDS011;37465;52.738;4.752;2022-12-18T10:36:31;34.40;;;21.55;;
51374;SDS011;37465;52.738;4.752;2022-12-18T10:39:04;37.67;;;21.02;;
51374;SDS011;37465;52.738;4.752;2022-12-18T10:41:43;32.33;;;20.58;;
51374;SDS011;37465;52.738;4.752;2022-12-18T10:44:12;34.88;;;21.35;;
51374;SDS011;37465;52.738;4.752;2022-12-18T10:46:46;33.53;;;20.60;;
51374;SDS011;37465;52.738;4.752;2022-12-18T10:49:19;31.48;;;19.58;;
51374;SDS011;37465;52.738;4.752;2022-12-18T10:51:49;31.42;;;19.15;;
51374;SDS011;37465;52.738;4.752;2022-12-18T10:54:19;36.13;;;19.80;;
51374;SDS011;37465;52.738;4.752;2022-12-18T10:56:50;34.42;;;20.25;;
51374;SDS011;37465;52.738;4.752;2022-12-18T10:59:18;30.20;;;19.13;;
51374;SDS011;37465;52.738;4.752;2022-12-18T11:01:47;34.55;;;19.90;;
51374;SDS011;37465;52.738;4.752;2022-12-18T11:04:18;31.42;;;19.05;;
51374;SDS011;37465;52.738;4.752;2022-12-18T11:06:57;30.13;;;19.92;;
51374;SDS011;37465;52.738;4.752;2022-12-18T11:09:26;33.50;;;19.73;;
51374;SDS011;37465;52.738;4.752;2022-12-18T11:11:56;36.55;;;20.33;;
51374;SDS011;37465;52.738;4.752;2022-12-18T11:14:25;34.15;;;20.80;;
51374;SDS011;37465;52.738;4.752;2022-12-18T11:16:55;34.70;;;20.83;;
51374;SDS011;37465;52.738;4.752;2022-12-18T11:19:43;32.45;;;19.42;;
51374;SDS011;37465;52.738;4.752;2022-12-18T11:22:18;33.78;;;20.48;;
51374;SDS011;37465;52.738;4.752;2022-12-18T11:24:52;32.60;;;21.08;;
51374;SDS011;37465;52.738;4.752;2022-12-18T11:27:42;38.10;;;21.90;;
51374;SDS011;37465;52.738;4.752;2022-12-18T11:30:20;27.92;;;18.45;;
51374;SDS011;37465;52.738;4.752;2022-12-18T11:32:49;29.50;;;19.75;;
51374;SDS011;37465;52.738;4.752;2022-12-18T11:35:18;32.83;;;20.75;;
51374;SDS011;37465;52.738;4.752;2022-12-18T11:37:49;32.88;;;20.10;;
51374;SDS011;37465;52.738;4.752;2022-12-18T11:42:48;30.95;;;19.67;;
51374;SDS011;37465;52.738;4.752;2022-12-18T11:45:21;33.75;;;20.00;;
51374;SDS011;37465;52.738;4.752;2022-12-18T11:47:56;33.75;;;20.48;;
51374;SDS011;37465;52.738;4.752;2022-12-18T11:50:28;33.13;;;20.60;;
51374;SDS011;37465;52.738;4.752;2022-12-18T11:52:59;33.67;;;20.55;;
51374;SDS011;37465;52.738;4.752;2022-12-18T11:55:34;35.58;;;20.63;;
51374;SDS011;37465;52.738;4.752;2022-12-18T19:49:02;28.27;;;16.27;;
51374;SDS011;37465;52.738;4.752;2022-12-18T19:51:30;30.30;;;17.40;;
51374;SDS011;37465;52.738;4.752;2022-12-18T19:53:58;29.92;;;17.42;;
51374;SDS011;37465;52.738;4.752;2022-12-18T19:56:28;28.50;;;16.92;;
51374;SDS011;37465;52.738;4.752;2022-12-18T19:58:57;30.50;;;18.58;;
51374;SDS011;37465;52.738;4.752;2022-12-18T20:01:25;30.15;;;18.10;;
51374;SDS011;37465;52.738;4.752;2022-12-18T20:03:53;27.85;;;17.85;;
51374;SDS011;37465;52.738;4.752;2022-12-18T20:06:26;33.25;;;19.60;;
51374;SDS011;37465;52.738;4.752;2022-12-18T20:08:56;32.50;;;18.83;;
51374;SDS011;37465;52.738;4.752;2022-12-18T20:11:26;34.28;;;19.50;;
51374;SDS011;37465;52.738;4.752;2022-12-18T20:13:54;31.25;;;19.27;;
51374;SDS011;37465;52.738;4.752;2022-12-18T20:16:22;33.10;;;19.35;;
51374;SDS011;37465;52.738;4.752;2022-12-18T20:18:50;31.83;;;19.38;;
51374;SDS011;37465;52.738;4.752;2022-12-18T20:21:21;37.20;;;20.40;;
51374;SDS011;37465;52.738;4.752;2022-12-18T20:23:50;34.67;;;19.65;;
51374;SDS011;37465;52.738;4.752;2022-12-18T20:26:18;34.85;;;20.95;;
51374;SDS011;37465;52.738;4.752;2022-12-18T20:28:45;36.17;;;20.60;;
51374;SDS011;37465;52.738;4.752;2022-12-18T20:31:13;37.97;;;21.77;;
51374;SDS011;37465;52.738;4.752;2022-12-18T20:33:41;37.08;;;23.20;;
51374;SDS011;37465;52.738;4.752;2022-12-18T20:36:13;43.80;;;23.23;;
51374;SDS011;37465;52.738;4.752;2022-12-18T20:38:46;48.67;;;25.20;;
51374;SDS011;37465;52.738;4.752;2022-12-18T20:41:17;45.55;;;23.77;;
51374;SDS011;37465;52.738;4.752;2022-12-18T20:43:46;46.08;;;23.80;;
51374;SDS011;37465;52.738;4.752;2022-12-18T20:46:15;47.40;;;24.88;;
51374;SDS011;37465;52.738;4.752;2022-12-18T20:48:43;47.80;;;25.17;;
51374;SDS011;37465;52.738;4.752;2022-12-18T20:51:13;52.42;;;26.13;;
51374;SDS011;37465;52.738;4.752;2022-12-18T20:53:41;46.67;;;25.10;;
51374;SDS011;37465;52.738;4.752;2022-12-18T20:56:17;51.13;;;27.50;;
51374;SDS011;37465;52.738;4.752;2022-12-18T20:58:47;50.80;;;24.88;;
51374;SDS011;37465;52.738;4.752;2022-12-18T21:01:15;56.15;;;26.27;;
51374;SDS011;37465;52.738;4.752;2022-12-18T21:03:44;52.97;;;26.90;;
51374;SDS011;37465;52.738;4.752;2022-12-18T21:06:13;48.17;;;25.40;;
51374;SDS011;37465;52.738;4.752;2022-12-18T21:08:41;56.23;;;29.87;;
51374;SDS011;37465;52.738;4.752;2022-12-18T21:11:13;61.58;;;29.27;;
51374;SDS011;37465;52.738;4.752;2022-12-18T21:13:58;57.25;;;28.70;;
51374;SDS011;37465;52.738;4.752;2022-12-18T21:16:25;65.38;;;29.85;;
51374;SDS011;37465;52.738;4.752;2022-12-18T21:18:53;59.85;;;28.38;;
51374;SDS011;37465;52.738;4.752;2022-12-18T21:21:22;59.47;;;28.67;;
51374;SDS011;37465;52.738;4.752;2022-12-18T21:23:52;66.68;;;31.92;;
51374;SDS011;37465;52.738;4.752;2022-12-18T21:26:20;67.50;;;30.58;;
51374;SDS011;37465;52.738;4.752;2022-12-18T21:28:53;66.75;;;30.05;;
51374;SDS011;37465;52.738;4.752;2022-12-18T21:31:23;64.22;;;29.83;;
51374;SDS011;37465;52.738;4.752;2022-12-18T21:33:52;65.20;;;30.58;;
51374;SDS011;37465;52.738;4.752;2022-12-18T21:36:27;67.45;;;31.17;;
51374;SDS011;37465;52.738;4.752;2022-12-18T21:38:56;72.72;;;31.30;;
51374;SDS011;37465;52.738;4.752;2022-12-18T21:41:24;72.97;;;31.80;;
51374;SDS011;37465;52.738;4.752;2022-12-18T21:44:11;61.85;;;28.42;;
51374;SDS011;37465;52.738;4.752;2022-12-18T21:46:42;76.45;;;30.77;;
51374;SDS011;37465;52.738;4.752;2022-12-18T21:49:14;69.75;;;32.78;;
51374;SDS011;37465;52.738;4.752;2022-12-18T21:51:46;75.88;;;33.25;;
51374;SDS011;37465;52.738;4.752;2022-12-18T21:54:14;77.00;;;35.22;;
51374;SDS011;37465;52.738;4.752;2022-12-18T21:56:46;77.88;;;33.60;;
51374;SDS011;37465;52.738;4.752;2022-12-18T21:59:15;81.40;;;32.00;;
51374;SDS011;37465;52.738;4.752;2022-12-18T22:01:45;82.88;;;33.47;;
51374;SDS011;37465;52.738;4.752;2022-12-18T22:04:13;82.55;;;34.33;;
51374;SDS011;37465;52.738;4.752;2022-12-18T22:06:42;76.82;;;36.00;;
51374;SDS011;37465;52.738;4.752;2022-12-18T22:09:10;80.72;;;34.65;;
51374;SDS011;37465;52.738;4.752;2022-12-18T22:11:40;80.53;;;34.00;;
51374;SDS011;37465;52.738;4.752;2022-12-18T22:14:08;81.65;;;32.85;;
51374;SDS011;37465;52.738;4.752;2022-12-18T22:16:36;85.43;;;35.20;;
51374;SDS011;37465;52.738;4.752;2022-12-18T22:19:06;82.75;;;33.05;;
51374;SDS011;37465;52.738;4.752;2022-12-18T22:21:34;88.40;;;34.85;;
51374;SDS011;37465;52.738;4.752;2022-12-18T22:24:04;77.63;;;32.95;;
51374;SDS011;37465;52.738;4.752;2022-12-18T22:26:33;84.07;;;34.25;;
51374;SDS011;37465;52.738;4.752;2022-12-18T22:29:05;91.70;;;35.55;;
51374;SDS011;37465;52.738;4.752;2022-12-18T22:31:51;83.82;;;36.10;;
51374;SDS011;37465;52.738;4.752;2022-12-18T22:34:20;86.88;;;34.83;;
51374;SDS011;37465;52.738;4.752;2022-12-18T22:36:48;89.43;;;34.60;;
51374;SDS011;37465;52.738;4.752;2022-12-18T22:39:17;91.53;;;37.00;;
51374;SDS011;37465;52.738;4.752;2022-12-18T22:41:46;94.88;;;37.63;;